sensor_id;sensor_type;location;lat;lon;timestamp;pressure;altitude;pressure_sealevel;temperature;humidity
70256;BME280;57669;52.624;-1.688;2023-01-31T00:00:35;101972.49;;;3.64;57.79
70256;BME280;57669;52.624;-1.688;2023-01-31T00:03:00;101969.71;;;4.14;56.72
70256;BME280;57669;52.624;-1.688;2023-01-31T00:05:26;101964.05;;;4.03;56.98
70256;BME280;57669;52.624;-1.688;2023-01-31T00:07:51;101971.87;;;3.95;56.85
70256;BME280;57669;52.624;-1.688;2023-01-31T00:10:16;101974.25;;;3.89;57.22
70256;BME280;57669;52.624;-1.688;2023-01-31T00:12:42;101975.74;;;4.47;55.56
70256;BME280;57669;52.624;-1.688;2023-01-31T00:15:08;101968.69;;;4.93;54.22
70256;BME280;57669;52.624;-1.688;2023-01-31T00:17:34;101973.07;;;4.65;54.81
70256;BME280;57669;52.624;-1.688;2023-01-31T00:19:59;101965.33;;;4.06;56.13
70256;BME280;57669;52.624;-1.688;2023-01-31T00:22:24;101966.82;;;4.67;54.80
70256;BME280;57669;52.624;-1.688;2023-01-31T00:24:50;101967.62;;;4.67;54.19
70256;BME280;57669;52.624;-1.688;2023-01-31T00:27:15;101953.34;;;4.96;54.37
70256;BME280;57669;52.624;-1.688;2023-01-31T00:29:41;101949.12;;;4.98;53.33
70256;BME280;57669;52.624;-1.688;2023-01-31T00:32:06;101944.14;;;5.03;54.02
70256;BME280;57669;52.624;-1.688;2023-01-31T00:34:31;101936.49;;;5.09;53.02
70256;BME280;57669;52.624;-1.688;2023-01-31T00:36:57;101932.71;;;5.17;52.82
70256;BME280;57669;52.624;-1.688;2023-01-31T00:39:22;101923.03;;;5.36;52.46
70256;BME280;57669;52.624;-1.688;2023-01-31T00:41:48;101912.13;;;5.35;51.91
70256;BME280;57669;52.624;-1.688;2023-01-31T00:44:14;101904.39;;;5.52;51.98
70256;BME280;57669;52.624;-1.688;2023-01-31T00:46:39;101902.93;;;4.64;54.70
70256;BME280;57669;52.624;-1.688;2023-01-31T00:49:05;101903.12;;;4.69;54.92
70256;BME280;57669;52.624;-1.688;2023-01-31T00:51:31;101899.04;;;4.63;54.82
70256;BME280;57669;52.624;-1.688;2023-01-31T00:53:57;101893.94;;;4.97;54.19
70256;BME280;57669;52.624;-1.688;2023-01-31T00:56:23;101890.90;;;4.71;54.17
70256;BME280;57669;52.624;-1.688;2023-01-31T00:58:48;101883.73;;;5.33;53.43
70256;BME280;57669;52.624;-1.688;2023-01-31T01:01:16;101875.50;;;4.90;54.04
70256;BME280;57669;52.624;-1.688;2023-01-31T01:03:40;101873.73;;;4.25;55.93
70256;BME280;57669;52.624;-1.688;2023-01-31T01:06:05;101869.88;;;4.42;55.66
70256;BME280;57669;52.624;-1.688;2023-01-31T01:08:30;101871.39;;;4.19;55.67
70256;BME280;57669;52.624;-1.688;2023-01-31T01:10:56;101866.03;;;4.58;55.10
70256;BME280;57669;52.624;-1.688;2023-01-31T01:13:21;101857.57;;;3.59;57.43
70256;BME280;57669;52.624;-1.688;2023-01-31T01:15:46;101853.84;;;4.22;56.16
70256;BME280;57669;52.624;-1.688;2023-01-31T01:18:12;101843.38;;;4.84;54.53
70256;BME280;57669;52.624;-1.688;2023-01-31T01:20:37;101840.26;;;3.85;56.39
70256;BME280;57669;52.624;-1.688;2023-01-31T01:23:03;101838.63;;;4.20;56.73
70256;BME280;57669;52.624;-1.688;2023-01-31T01:25:28;101834.19;;;4.18;56.92
70256;BME280;57669;52.624;-1.688;2023-01-31T01:27:53;101827.23;;;3.64;57.42
70256;BME280;57669;52.624;-1.688;2023-01-31T01:30:19;101836.84;;;3.87;57.67
70256;BME280;57669;52.624;-1.688;2023-01-31T01:32:45;101833.98;;;4.08;56.51
70256;BME280;57669;52.624;-1.688;2023-01-31T01:35:11;101836.89;;;3.30;58.64
70256;BME280;57669;52.624;-1.688;2023-01-31T01:37:36;101835.31;;;3.88;57.59
70256;BME280;57669;52.624;-1.688;2023-01-31T01:40:02;101836.65;;;3.40;58.38
70256;BME280;57669;52.624;-1.688;2023-01-31T01:42:33;101834.51;;;3.87;57.11
70256;BME280;57669;52.624;-1.688;2023-01-31T01:44:54;101832.52;;;3.73;57.40
70256;BME280;57669;52.624;-1.688;2023-01-31T01:47:23;101825.17;;;3.71;58.03
70256;BME280;57669;52.624;-1.688;2023-01-31T01:49:46;101829.32;;;3.70;58.01
70256;BME280;57669;52.624;-1.688;2023-01-31T01:52:10;101825.22;;;4.08;57.17
70256;BME280;57669;52.624;-1.688;2023-01-31T01:54:37;101821.88;;;3.77;57.88
70256;BME280;57669;52.624;-1.688;2023-01-31T01:57:09;101809.33;;;3.99;57.94
70256;BME280;57669;52.624;-1.688;2023-01-31T01:59:30;101798.95;;;3.69;58.52
70256;BME280;57669;52.624;-1.688;2023-01-31T02:01:51;101798.51;;;3.79;59.16
70256;BME280;57669;52.624;-1.688;2023-01-31T02:04:19;101803.48;;;3.76;58.56
70256;BME280;57669;52.624;-1.688;2023-01-31T02:06:51;101805.35;;;3.44;58.81
70256;BME280;57669;52.624;-1.688;2023-01-31T02:09:08;101801.71;;;2.99;59.98
70256;BME280;57669;52.624;-1.688;2023-01-31T02:14:01;101801.79;;;3.39;58.97
70256;BME280;57669;52.624;-1.688;2023-01-31T02:16:23;101794.46;;;3.32;59.00
70256;BME280;57669;52.624;-1.688;2023-01-31T02:18:49;101786.75;;;3.49;58.52
70256;BME280;57669;52.624;-1.688;2023-01-31T02:21:29;101791.45;;;3.75;58.00
70256;BME280;57669;52.624;-1.688;2023-01-31T02:23:55;101793.50;;;3.56;58.47
70256;BME280;57669;52.624;-1.688;2023-01-31T02:33:25;101801.91;;;3.41;58.20
70256;BME280;57669;52.624;-1.688;2023-01-31T02:35:56;101794.39;;;3.66;57.92
70256;BME280;57669;52.624;-1.688;2023-01-31T02:38:22;101799.02;;;3.85;57.86
70256;BME280;57669;52.624;-1.688;2023-01-31T02:40:45;101803.48;;;3.90;57.66
70256;BME280;57669;52.624;-1.688;2023-01-31T02:43:10;101813.10;;;3.80;57.11
70256;BME280;57669;52.624;-1.688;2023-01-31T02:45:37;101813.66;;;4.23;56.39
70256;BME280;57669;52.624;-1.688;2023-01-31T02:48:05;101806.39;;;4.24;57.32
70256;BME280;57669;52.624;-1.688;2023-01-31T02:50:26;101803.75;;;3.80;57.34
70256;BME280;57669;52.624;-1.688;2023-01-31T02:52:49;101803.99;;;4.18;56.96
70256;BME280;57669;52.624;-1.688;2023-01-31T02:55:16;101810.20;;;4.71;55.43
70256;BME280;57669;52.624;-1.688;2023-01-31T02:57:39;101813.90;;;4.40;57.07
70256;BME280;57669;52.624;-1.688;2023-01-31T03:00:05;101803.75;;;3.95;57.42
70256;BME280;57669;52.624;-1.688;2023-01-31T03:02:28;101795.40;;;3.55;57.89
70256;BME280;57669;52.624;-1.688;2023-01-31T03:04:54;101792.41;;;4.06;57.57
70256;BME280;57669;52.624;-1.688;2023-01-31T03:07:21;101787.20;;;4.29;57.85
70256;BME280;57669;52.624;-1.688;2023-01-31T03:09:51;101788.42;;;3.59;59.13
70256;BME280;57669;52.624;-1.688;2023-01-31T03:12:21;101787.56;;;4.25;57.90
70256;BME280;57669;52.624;-1.688;2023-01-31T03:14:41;101779.42;;;3.59;58.78
70256;BME280;57669;52.624;-1.688;2023-01-31T03:17:08;101775.87;;;3.62;58.80
70256;BME280;57669;52.624;-1.688;2023-01-31T03:19:29;101763.96;;;4.77;57.28
70256;BME280;57669;52.624;-1.688;2023-01-31T03:21:58;101766.43;;;4.44;57.84
70256;BME280;57669;52.624;-1.688;2023-01-31T03:24:18;101756.34;;;4.18;58.62
70256;BME280;57669;52.624;-1.688;2023-01-31T03:26:43;101756.04;;;4.54;58.07
70256;BME280;57669;52.624;-1.688;2023-01-31T03:29:11;101744.79;;;3.81;59.67
70256;BME280;57669;52.624;-1.688;2023-01-31T03:31:37;101736.42;;;4.10;59.39
70256;BME280;57669;52.624;-1.688;2023-01-31T03:34:03;101727.68;;;3.61;60.53
70256;BME280;57669;52.624;-1.688;2023-01-31T03:36:30;101724.39;;;3.63;60.71
70256;BME280;57669;52.624;-1.688;2023-01-31T03:38:57;101719.56;;;4.28;59.56
70256;BME280;57669;52.624;-1.688;2023-01-31T03:41:22;101722.90;;;3.65;61.22
70256;BME280;57669;52.624;-1.688;2023-01-31T03:43:47;101722.58;;;3.82;60.99
70256;BME280;57669;52.624;-1.688;2023-01-31T03:46:12;101718.96;;;4.18;60.21
70256;BME280;57669;52.624;-1.688;2023-01-31T03:48:37;101718.91;;;4.02;60.80
70256;BME280;57669;52.624;-1.688;2023-01-31T03:51:01;101718.56;;;4.08;60.77
70256;BME280;57669;52.624;-1.688;2023-01-31T03:53:30;101717.35;;;4.61;59.06
70256;BME280;57669;52.624;-1.688;2023-01-31T03:55:52;101714.09;;;4.48;58.64
70256;BME280;57669;52.624;-1.688;2023-01-31T03:58:16;101704.88;;;4.42;59.51
70256;BME280;57669;52.624;-1.688;2023-01-31T04:00:41;101701.50;;;4.15;60.59
70256;BME280;57669;52.624;-1.688;2023-01-31T04:03:11;101696.73;;;4.11;60.72
70256;BME280;57669;52.624;-1.688;2023-01-31T04:05:31;101694.59;;;4.37;59.93
70256;BME280;57669;52.624;-1.688;2023-01-31T04:07:57;101695.95;;;5.11;58.38
70256;BME280;57669;52.624;-1.688;2023-01-31T04:10:22;101691.12;;;4.62;59.98
70256;BME280;57669;52.624;-1.688;2023-01-31T04:12:48;101687.48;;;4.32;60.36
70256;BME280;57669;52.624;-1.688;2023-01-31T04:15:14;101680.77;;;4.09;61.90
70256;BME280;57669;52.624;-1.688;2023-01-31T04:17:39;101681.16;;;4.08;62.24
70256;BME280;57669;52.624;-1.688;2023-01-31T04:20:06;101684.80;;;4.23;62.07
70256;BME280;57669;52.624;-1.688;2023-01-31T04:22:31;101674.42;;;4.84;60.83
70256;BME280;57669;52.624;-1.688;2023-01-31T04:24:56;101652.82;;;4.42;62.08
70256;BME280;57669;52.624;-1.688;2023-01-31T04:27:22;101655.19;;;4.13;63.17
70256;BME280;57669;52.624;-1.688;2023-01-31T04:29:48;101654.29;;;4.21;62.84
70256;BME280;57669;52.624;-1.688;2023-01-31T04:32:14;101650.14;;;3.83;65.71
70256;BME280;57669;52.624;-1.688;2023-01-31T04:34:39;101652.94;;;3.62;65.81
70256;BME280;57669;52.624;-1.688;2023-01-31T04:37:05;101637.38;;;4.02;64.74
70256;BME280;57669;52.624;-1.688;2023-01-31T04:39:30;101628.78;;;4.09;63.99
70256;BME280;57669;52.624;-1.688;2023-01-31T04:41:55;101624.79;;;4.21;64.06
70256;BME280;57669;52.624;-1.688;2023-01-31T04:44:21;101622.18;;;3.80;66.26
70256;BME280;57669;52.624;-1.688;2023-01-31T04:46:47;101621.65;;;3.92;65.08
70256;BME280;57669;52.624;-1.688;2023-01-31T04:49:12;101619.45;;;4.09;64.68
70256;BME280;57669;52.624;-1.688;2023-01-31T04:51:38;101620.52;;;3.65;65.19
70256;BME280;57669;52.624;-1.688;2023-01-31T04:54:04;101618.94;;;3.78;64.83
70256;BME280;57669;52.624;-1.688;2023-01-31T04:56:29;101623.99;;;4.47;64.09
70256;BME280;57669;52.624;-1.688;2023-01-31T04:58:54;101619.06;;;3.87;65.06
70256;BME280;57669;52.624;-1.688;2023-01-31T05:01:20;101618.46;;;4.07;65.10
70256;BME280;57669;52.624;-1.688;2023-01-31T05:03:45;101608.37;;;4.05;64.62
70256;BME280;57669;52.624;-1.688;2023-01-31T05:06:13;101610.15;;;3.99;64.92
70256;BME280;57669;52.624;-1.688;2023-01-31T05:08:36;101620.94;;;3.90;65.13
70256;BME280;57669;52.624;-1.688;2023-01-31T05:11:03;101622.04;;;4.32;63.83
70256;BME280;57669;52.624;-1.688;2023-01-31T05:13:27;101619.72;;;4.47;63.88
70256;BME280;57669;52.624;-1.688;2023-01-31T05:15:53;101625.99;;;4.91;62.54
70256;BME280;57669;52.624;-1.688;2023-01-31T05:18:18;101627.31;;;4.20;64.85
70256;BME280;57669;52.624;-1.688;2023-01-31T05:20:44;101630.53;;;4.88;63.46
70256;BME280;57669;52.624;-1.688;2023-01-31T05:23:10;101622.84;;;4.68;63.33
70256;BME280;57669;52.624;-1.688;2023-01-31T05:25:36;101626.54;;;5.08;62.43
70256;BME280;57669;52.624;-1.688;2023-01-31T05:28:01;101621.02;;;4.42;64.11
70256;BME280;57669;52.624;-1.688;2023-01-31T05:30:32;101624.96;;;4.45;63.67
70256;BME280;57669;52.624;-1.688;2023-01-31T05:33:06;101624.28;;;4.81;62.91
70256;BME280;57669;52.624;-1.688;2023-01-31T05:35:18;101625.64;;;5.20;62.13
70256;BME280;57669;52.624;-1.688;2023-01-31T05:37:42;101625.30;;;5.43;61.39
70256;BME280;57669;52.624;-1.688;2023-01-31T05:40:09;101622.13;;;5.26;61.18
70256;BME280;57669;52.624;-1.688;2023-01-31T05:42:34;101619.69;;;4.39;63.04
70256;BME280;57669;52.624;-1.688;2023-01-31T05:45:00;101612.98;;;4.74;62.40
70256;BME280;57669;52.624;-1.688;2023-01-31T05:47:25;101611.76;;;4.54;62.99
70256;BME280;57669;52.624;-1.688;2023-01-31T05:49:51;101609.09;;;4.68;62.13
70256;BME280;57669;52.624;-1.688;2023-01-31T05:52:17;101612.66;;;4.81;63.10
70256;BME280;57669;52.624;-1.688;2023-01-31T05:54:42;101612.28;;;4.55;63.26
70256;BME280;57669;52.624;-1.688;2023-01-31T05:57:08;101616.91;;;4.78;62.81
70256;BME280;57669;52.624;-1.688;2023-01-31T05:59:34;101616.60;;;5.25;61.17
70256;BME280;57669;52.624;-1.688;2023-01-31T06:01:59;101620.79;;;4.91;61.44
70256;BME280;57669;52.624;-1.688;2023-01-31T06:04:25;101613.44;;;5.36;60.60
70256;BME280;57669;52.624;-1.688;2023-01-31T06:06:50;101610.41;;;5.60;59.91
70256;BME280;57669;52.624;-1.688;2023-01-31T06:09:15;101605.26;;;5.48;60.11
70256;BME280;57669;52.624;-1.688;2023-01-31T06:11:41;101602.92;;;5.50;61.52
70256;BME280;57669;52.624;-1.688;2023-01-31T06:14:07;101608.39;;;5.32;61.03
70256;BME280;57669;52.624;-1.688;2023-01-31T06:16:32;101606.90;;;5.27;61.60
70256;BME280;57669;52.624;-1.688;2023-01-31T06:18:58;101612.31;;;5.09;64.27
70256;BME280;57669;52.624;-1.688;2023-01-31T06:21:23;101605.86;;;5.07;63.81
70256;BME280;57669;52.624;-1.688;2023-01-31T06:23:48;101599.07;;;4.53;65.13
70256;BME280;57669;52.624;-1.688;2023-01-31T06:26:14;101586.26;;;4.74;64.89
70256;BME280;57669;52.624;-1.688;2023-01-31T06:28:39;101578.31;;;4.47;65.72
70256;BME280;57669;52.624;-1.688;2023-01-31T06:31:06;101585.53;;;5.25;65.42
70256;BME280;57669;52.624;-1.688;2023-01-31T06:33:31;101586.76;;;4.90;65.89
70256;BME280;57669;52.624;-1.688;2023-01-31T06:35:58;101583.88;;;5.02;64.98
70256;BME280;57669;52.624;-1.688;2023-01-31T06:38:21;101578.71;;;5.16;65.48
70256;BME280;57669;52.624;-1.688;2023-01-31T06:40:47;101584.60;;;5.10;65.62
70256;BME280;57669;52.624;-1.688;2023-01-31T06:43:12;101583.73;;;5.03;65.45
70256;BME280;57669;52.624;-1.688;2023-01-31T06:45:37;101570.51;;;5.13;65.27
70256;BME280;57669;52.624;-1.688;2023-01-31T06:48:03;101571.71;;;5.01;65.73
70256;BME280;57669;52.624;-1.688;2023-01-31T06:50:28;101561.26;;;5.38;64.74
70256;BME280;57669;52.624;-1.688;2023-01-31T06:52:54;101565.03;;;5.05;65.36
70256;BME280;57669;52.624;-1.688;2023-01-31T06:55:19;101575.55;;;5.05;65.43
70256;BME280;57669;52.624;-1.688;2023-01-31T06:57:45;101579.85;;;4.92;65.82
70256;BME280;57669;52.624;-1.688;2023-01-31T07:00:11;101567.20;;;5.21;64.56
70256;BME280;57669;52.624;-1.688;2023-01-31T07:02:36;101580.84;;;5.03;65.98
70256;BME280;57669;52.624;-1.688;2023-01-31T07:05:01;101566.77;;;5.62;65.32
70256;BME280;57669;52.624;-1.688;2023-01-31T07:07:27;101576.19;;;5.36;65.22
70256;BME280;57669;52.624;-1.688;2023-01-31T07:09:52;101587.93;;;4.83;67.37
70256;BME280;57669;52.624;-1.688;2023-01-31T07:12:18;101590.40;;;4.75;67.79
70256;BME280;57669;52.624;-1.688;2023-01-31T07:14:43;101595.02;;;5.33;66.23
70256;BME280;57669;52.624;-1.688;2023-01-31T07:17:09;101592.63;;;5.17;67.00
70256;BME280;57669;52.624;-1.688;2023-01-31T07:19:35;101590.26;;;5.82;65.31
70256;BME280;57669;52.624;-1.688;2023-01-31T07:22:01;101596.23;;;5.27;67.12
70256;BME280;57669;52.624;-1.688;2023-01-31T07:24:27;101600.71;;;4.91;68.07
70256;BME280;57669;52.624;-1.688;2023-01-31T07:26:52;101598.52;;;5.34;67.27
70256;BME280;57669;52.624;-1.688;2023-01-31T07:29:18;101601.98;;;5.85;65.85
70256;BME280;57669;52.624;-1.688;2023-01-31T07:31:44;101600.43;;;5.47;67.06
70256;BME280;57669;52.624;-1.688;2023-01-31T07:34:10;101604.49;;;5.53;67.06
70256;BME280;57669;52.624;-1.688;2023-01-31T07:36:36;101598.33;;;5.13;68.74
70256;BME280;57669;52.624;-1.688;2023-01-31T07:39:01;101597.35;;;5.14;68.61
70256;BME280;57669;52.624;-1.688;2023-01-31T07:41:27;101599.90;;;5.31;67.87
70256;BME280;57669;52.624;-1.688;2023-01-31T07:43:53;101591.57;;;5.44;67.48
70256;BME280;57669;52.624;-1.688;2023-01-31T07:46:19;101593.58;;;5.66;67.06
70256;BME280;57669;52.624;-1.688;2023-01-31T07:48:45;101601.59;;;5.25;67.31
70256;BME280;57669;52.624;-1.688;2023-01-31T07:51:11;101605.32;;;5.27;68.34
70256;BME280;57669;52.624;-1.688;2023-01-31T07:53:38;101601.86;;;5.79;67.08
70256;BME280;57669;52.624;-1.688;2023-01-31T07:56:07;101602.10;;;5.01;67.81
70256;BME280;57669;52.624;-1.688;2023-01-31T07:58:28;101605.04;;;5.69;67.51
70256;BME280;57669;52.624;-1.688;2023-01-31T08:00:54;101603.62;;;5.33;67.69
70256;BME280;57669;52.624;-1.688;2023-01-31T08:03:24;101606.93;;;5.41;67.69
70256;BME280;57669;52.624;-1.688;2023-01-31T08:05:45;101605.50;;;6.01;66.25
70256;BME280;57669;52.624;-1.688;2023-01-31T08:08:12;101603.31;;;5.75;66.94
70256;BME280;57669;52.624;-1.688;2023-01-31T08:10:38;101611.67;;;5.01;68.34
70256;BME280;57669;52.624;-1.688;2023-01-31T08:13:03;101602.83;;;5.93;66.21
70256;BME280;57669;52.624;-1.688;2023-01-31T08:15:28;101600.02;;;5.90;66.21
70256;BME280;57669;52.624;-1.688;2023-01-31T08:17:55;101606.12;;;5.93;66.06
70256;BME280;57669;52.624;-1.688;2023-01-31T08:20:20;101596.03;;;6.70;62.83
70256;BME280;57669;52.624;-1.688;2023-01-31T08:22:47;101597.67;;;6.06;64.27
70256;BME280;57669;52.624;-1.688;2023-01-31T08:25:12;101603.04;;;6.75;63.34
70256;BME280;57669;52.624;-1.688;2023-01-31T08:27:37;101603.22;;;6.52;63.99
70256;BME280;57669;52.624;-1.688;2023-01-31T08:30:04;101606.68;;;6.76;64.01
70256;BME280;57669;52.624;-1.688;2023-01-31T08:32:29;101612.53;;;6.34;63.69
70256;BME280;57669;52.624;-1.688;2023-01-31T08:34:55;101618.47;;;6.50;63.50
70256;BME280;57669;52.624;-1.688;2023-01-31T08:37:20;101620.90;;;5.43;67.17
70256;BME280;57669;52.624;-1.688;2023-01-31T08:39:46;101611.86;;;6.10;65.86
70256;BME280;57669;52.624;-1.688;2023-01-31T08:42:12;101609.13;;;5.98;66.07
70256;BME280;57669;52.624;-1.688;2023-01-31T08:44:38;101613.79;;;5.83;66.52
70256;BME280;57669;52.624;-1.688;2023-01-31T08:47:04;101611.24;;;6.10;66.04
70256;BME280;57669;52.624;-1.688;2023-01-31T08:49:30;101620.80;;;6.51;64.83
70256;BME280;57669;52.624;-1.688;2023-01-31T08:51:55;101621.73;;;6.09;65.14
70256;BME280;57669;52.624;-1.688;2023-01-31T08:54:21;101629.03;;;5.43;67.97
70256;BME280;57669;52.624;-1.688;2023-01-31T08:56:47;101621.64;;;5.62;67.37
70256;BME280;57669;52.624;-1.688;2023-01-31T08:59:13;101625.98;;;6.09;65.69
70256;BME280;57669;52.624;-1.688;2023-01-31T09:01:39;101631.56;;;5.74;67.52
70256;BME280;57669;52.624;-1.688;2023-01-31T09:04:04;101622.25;;;6.08;65.78
70256;BME280;57669;52.624;-1.688;2023-01-31T09:06:30;101628.33;;;5.89;65.72
70256;BME280;57669;52.624;-1.688;2023-01-31T09:08:57;101634.00;;;5.89;66.35
70256;BME280;57669;52.624;-1.688;2023-01-31T09:11:22;101628.17;;;5.96;66.13
70256;BME280;57669;52.624;-1.688;2023-01-31T09:13:48;101644.34;;;5.72;67.14
70256;BME280;57669;52.624;-1.688;2023-01-31T09:16:13;101645.36;;;5.60;67.45
70256;BME280;57669;52.624;-1.688;2023-01-31T09:18:40;101639.78;;;5.97;65.71
70256;BME280;57669;52.624;-1.688;2023-01-31T09:21:06;101636.26;;;5.83;66.65
70256;BME280;57669;52.624;-1.688;2023-01-31T09:23:30;101633.31;;;5.97;65.82
70256;BME280;57669;52.624;-1.688;2023-01-31T09:25:55;101639.09;;;5.95;65.29
70256;BME280;57669;52.624;-1.688;2023-01-31T09:28:22;101643.05;;;5.94;64.44
70256;BME280;57669;52.624;-1.688;2023-01-31T09:30:47;101641.28;;;6.49;63.57
70256;BME280;57669;52.624;-1.688;2023-01-31T09:33:17;101652.28;;;6.16;62.96
70256;BME280;57669;52.624;-1.688;2023-01-31T09:35:38;101659.97;;;6.02;63.78
70256;BME280;57669;52.624;-1.688;2023-01-31T09:38:04;101659.27;;;6.25;62.07
70256;BME280;57669;52.624;-1.688;2023-01-31T09:40:32;101669.96;;;5.76;61.05
70256;BME280;57669;52.624;-1.688;2023-01-31T09:42:56;101679.09;;;5.88;58.78
70256;BME280;57669;52.624;-1.688;2023-01-31T09:45:27;101670.77;;;6.20;58.62
70256;BME280;57669;52.624;-1.688;2023-01-31T09:47:49;101674.26;;;6.18;55.96
70256;BME280;57669;52.624;-1.688;2023-01-31T09:50:18;101676.93;;;6.66;52.95
70256;BME280;57669;52.624;-1.688;2023-01-31T09:52:39;101680.30;;;6.51;51.54
70256;BME280;57669;52.624;-1.688;2023-01-31T09:55:05;101679.28;;;6.15;49.78
70256;BME280;57669;52.624;-1.688;2023-01-31T09:57:39;101682.30;;;6.63;50.14
70256;BME280;57669;52.624;-1.688;2023-01-31T10:00:02;101677.04;;;7.19;47.91
70256;BME280;57669;52.624;-1.688;2023-01-31T10:02:30;101674.93;;;6.37;48.41
70256;BME280;57669;52.624;-1.688;2023-01-31T10:04:58;101701.28;;;5.77;49.57
70256;BME280;57669;52.624;-1.688;2023-01-31T10:07:17;101689.94;;;5.66;50.64
70256;BME280;57669;52.624;-1.688;2023-01-31T10:09:42;101686.63;;;5.96;50.32
70256;BME280;57669;52.624;-1.688;2023-01-31T10:12:10;101694.14;;;5.65;51.13
70256;BME280;57669;52.624;-1.688;2023-01-31T10:14:34;101690.15;;;5.88;50.61
70256;BME280;57669;52.624;-1.688;2023-01-31T10:17:01;101697.15;;;6.22;50.73
70256;BME280;57669;52.624;-1.688;2023-01-31T10:19:24;101703.80;;;6.44;49.50
70256;BME280;57669;52.624;-1.688;2023-01-31T10:21:50;101703.93;;;6.25;49.31
70256;BME280;57669;52.624;-1.688;2023-01-31T10:24:16;101711.24;;;6.79;49.03
70256;BME280;57669;52.624;-1.688;2023-01-31T10:26:41;101710.53;;;6.90;48.60
70256;BME280;57669;52.624;-1.688;2023-01-31T10:29:10;101716.64;;;6.92;48.08
70256;BME280;57669;52.624;-1.688;2023-01-31T10:31:33;101713.55;;;7.41;47.33
70256;BME280;57669;52.624;-1.688;2023-01-31T10:33:59;101715.30;;;6.98;47.91
70256;BME280;57669;52.624;-1.688;2023-01-31T10:36:25;101731.37;;;6.39;49.00
70256;BME280;57669;52.624;-1.688;2023-01-31T10:38:56;101723.12;;;6.14;50.36
70256;BME280;57669;52.624;-1.688;2023-01-31T10:41:16;101718.34;;;6.06;50.34
70256;BME280;57669;52.624;-1.688;2023-01-31T10:43:43;101713.14;;;6.18;50.25
70256;BME280;57669;52.624;-1.688;2023-01-31T10:46:08;101718.47;;;6.15;50.18
70256;BME280;57669;52.624;-1.688;2023-01-31T10:48:29;101715.29;;;6.87;48.67
70256;BME280;57669;52.624;-1.688;2023-01-31T10:51:03;101714.31;;;6.76;48.26
70256;BME280;57669;52.624;-1.688;2023-01-31T10:53:34;101710.33;;;6.55;48.92
70256;BME280;57669;52.624;-1.688;2023-01-31T10:55:54;101716.61;;;6.20;49.46
70256;BME280;57669;52.624;-1.688;2023-01-31T10:58:13;101714.77;;;6.55;48.34
70256;BME280;57669;52.624;-1.688;2023-01-31T11:00:37;101725.82;;;6.84;47.86
70256;BME280;57669;52.624;-1.688;2023-01-31T11:03:03;101718.55;;;6.91;47.23
70256;BME280;57669;52.624;-1.688;2023-01-31T11:05:28;101714.77;;;6.77;46.30
70256;BME280;57669;52.624;-1.688;2023-01-31T11:07:55;101717.58;;;6.44;46.26
70256;BME280;57669;52.624;-1.688;2023-01-31T11:10:22;101715.09;;;6.82;46.02
70256;BME280;57669;52.624;-1.688;2023-01-31T11:12:51;101715.71;;;6.77;46.02
70256;BME280;57669;52.624;-1.688;2023-01-31T11:15:15;101713.38;;;6.79;46.17
70256;BME280;57669;52.624;-1.688;2023-01-31T11:17:36;101715.24;;;6.15;46.09
70256;BME280;57669;52.624;-1.688;2023-01-31T11:20:20;101719.97;;;6.85;46.32
70256;BME280;57669;52.624;-1.688;2023-01-31T11:22:29;101715.90;;;6.45;46.48
70256;BME280;57669;52.624;-1.688;2023-01-31T11:24:55;101705.14;;;6.68;46.44
70256;BME280;57669;52.624;-1.688;2023-01-31T11:27:24;101706.25;;;6.57;46.25
70256;BME280;57669;52.624;-1.688;2023-01-31T11:29:47;101702.26;;;6.71;46.18
70256;BME280;57669;52.624;-1.688;2023-01-31T11:32:16;101700.89;;;6.79;46.13
70256;BME280;57669;52.624;-1.688;2023-01-31T11:34:36;101711.47;;;7.04;45.25
70256;BME280;57669;52.624;-1.688;2023-01-31T11:37:05;101706.80;;;7.19;45.03
70256;BME280;57669;52.624;-1.688;2023-01-31T11:39:30;101703.52;;;7.42;44.31
70256;BME280;57669;52.624;-1.688;2023-01-31T11:41:53;101712.02;;;7.06;45.27
70256;BME280;57669;52.624;-1.688;2023-01-31T11:44:20;101710.69;;;7.02;45.81
70256;BME280;57669;52.624;-1.688;2023-01-31T11:46:49;101701.40;;;6.88;46.42
70256;BME280;57669;52.624;-1.688;2023-01-31T11:49:11;101705.32;;;6.03;47.61
70256;BME280;57669;52.624;-1.688;2023-01-31T11:51:36;101707.11;;;6.40;46.81
70256;BME280;57669;52.624;-1.688;2023-01-31T11:54:03;101698.20;;;6.73;46.07
70256;BME280;57669;52.624;-1.688;2023-01-31T11:56:30;101705.25;;;6.98;46.34
70256;BME280;57669;52.624;-1.688;2023-01-31T11:58:54;101699.76;;;7.48;45.71
70256;BME280;57669;52.624;-1.688;2023-01-31T12:01:20;101712.85;;;7.56;45.52
70256;BME280;57669;52.624;-1.688;2023-01-31T12:03:46;101705.76;;;7.99;43.97
70256;BME280;57669;52.624;-1.688;2023-01-31T12:06:09;101707.10;;;8.09;44.34
70256;BME280;57669;52.624;-1.688;2023-01-31T12:08:36;101708.21;;;7.59;45.39
70256;BME280;57669;52.624;-1.688;2023-01-31T12:11:04;101706.60;;;7.34;46.20
70256;BME280;57669;52.624;-1.688;2023-01-31T12:13:26;101698.90;;;7.18;46.54
70256;BME280;57669;52.624;-1.688;2023-01-31T12:15:56;101706.38;;;7.15;47.71
70256;BME280;57669;52.624;-1.688;2023-01-31T12:18:26;101708.27;;;6.94;47.44
70256;BME280;57669;52.624;-1.688;2023-01-31T12:20:49;101715.39;;;7.54;46.54
70256;BME280;57669;52.624;-1.688;2023-01-31T12:23:18;101731.61;;;7.50;46.94
70256;BME280;57669;52.624;-1.688;2023-01-31T12:25:47;101721.63;;;6.92;47.20
70256;BME280;57669;52.624;-1.688;2023-01-31T12:28:09;101726.97;;;6.79;47.50
70256;BME280;57669;52.624;-1.688;2023-01-31T12:30:43;101730.71;;;7.11;47.42
70256;BME280;57669;52.624;-1.688;2023-01-31T12:33:06;101735.96;;;7.00;46.24
70256;BME280;57669;52.624;-1.688;2023-01-31T12:35:29;101728.16;;;7.77;44.58
70256;BME280;57669;52.624;-1.688;2023-01-31T12:37:53;101728.44;;;8.08;43.14
70256;BME280;57669;52.624;-1.688;2023-01-31T12:40:24;101729.19;;;7.04;44.36
70256;BME280;57669;52.624;-1.688;2023-01-31T12:42:47;101724.59;;;7.16;43.77
70256;BME280;57669;52.624;-1.688;2023-01-31T12:45:10;101730.17;;;7.11;44.16
70256;BME280;57669;52.624;-1.688;2023-01-31T12:47:41;101723.87;;;6.98;44.25
70256;BME280;57669;52.624;-1.688;2023-01-31T12:52:23;101735.24;;;6.79;43.87